Time;durP1;ratioP1;P1;durP2;ratioP2;P2;SDS_P1;SDS_P2;PMS_P1;PMS_P2;Temp;Humidity;BMP_temperature;BMP_pressure;BME280_temperature;BME280_humidity;BME280_pressure;Samples;Min_cycle;Max_cycle;Signal;HPM_P1;HPM_P2
2022/10/15 00:01:47;;;;;;;0.40;0.30;;;;;;;;;;4970216;28;20445;-68
2022/10/15 00:04:13;;;;;;;1.80;0.43;;;;;;;;;;4967037;28;20437;-67
2022/10/15 00:06:39;;;;;;;0.30;0.30;;;;;;;;;;4969954;28;20444;-67
2022/10/15 00:09:05;;;;;;;0.30;0.30;;;;;;;;;;4973164;28;20508;-69
2022/10/15 00:11:31;;;;;;;0.40;0.37;;;;;;;;;;4973875;28;20930;-68
2022/10/15 00:13:58;;;;;;;0.30;0.30;;;;;;;;;;4970144;28;20469;-68
2022/10/15 00:16:25;;;;;;;0.40;0.40;;;;;;;;;;4973072;28;20472;-69
2022/10/15 00:18:51;;;;;;;0.30;0.30;;;;;;;;;;4973387;28;20452;-68
2022/10/15 00:21:18;;;;;;;16.17;0.60;;;;;;;;;;4973462;28;20526;-68
2022/10/15 00:23:44;;;;;;;0.30;0.30;;;;;;;;;;4972808;28;20480;-68
2022/10/15 00:26:15;;;;;;;0.30;0.30;;;;;;;;;;4972390;28;20430;-68
2022/10/15 00:28:41;;;;;;;2.70;0.50;;;;;;;;;;4972945;28;20604;-68
2022/10/15 00:31:09;;;;;;;0.30;0.30;;;;;;;;;;4972015;28;20934;-68
2022/10/15 00:33:35;;;;;;;1.03;0.40;;;;;;;;;;4972368;28;20808;-68
2022/10/15 00:36:02;;;;;;;0.30;0.30;;;;;;;;;;4971746;28;20588;-68
2022/10/15 00:38:29;;;;;;;0.40;0.40;;;;;;;;;;4972624;28;20473;-68
2022/10/15 00:40:55;;;;;;;1.70;0.40;;;;;;;;;;4973319;28;20497;-68
2022/10/15 00:43:39;;;;;;;0.40;0.40;;;;;;;;;;4971724;28;20890;-68
2022/10/15 00:46:06;;;;;;;3.60;0.40;;;;;;;;;;4971733;28;20440;-68
2022/10/15 00:48:32;;;;;;;0.70;0.40;;;;;;;;;;4973262;28;20426;-68
2022/10/15 00:51:02;;;;;;;1.50;0.40;;;;;;;;;;4971912;28;20990;-68
2022/10/15 00:53:28;;;;;;;0.50;0.30;;;;;;;;;;4971546;28;20918;-69
2022/10/15 00:55:53;;;;;;;0.83;0.50;;;;;;;;;;4971810;28;20943;-68
2022/10/15 00:58:26;;;;;;;0.40;0.40;;;;;;;;;;4969482;28;20446;-68
2022/10/15 01:00:52;;;;;;;1.90;0.30;;;;;;;;;;4971905;28;20501;-69
2022/10/15 01:03:18;;;;;;;0.40;0.40;;;;;;;;;;4971596;28;21004;-68
2022/10/15 01:05:47;;;;;;;0.93;0.40;;;;;;;;;;4971888;28;20465;-68
2022/10/15 01:08:13;;;;;;;0.30;0.30;;;;;;;;;;4971253;28;20484;-68
2022/10/15 01:10:45;;;;;;;0.30;0.30;;;;;;;;;;4971526;28;20545;-68
2022/10/15 01:13:29;;;;;;;0.97;0.30;;;;;;;;;;4972446;28;20446;-69
2022/10/15 01:15:58;;;;;;;0.33;0.33;;;;;;;;;;4971304;28;20426;-68
2022/10/15 01:18:28;;;;;;;0.73;0.37;;;;;;;;;;4969666;28;20443;-68
2022/10/15 01:20:59;;;;;;;0.73;0.73;;;;;;;;;;4970916;28;20444;-69
2022/10/15 01:23:43;;;;;;;1.63;0.40;;;;;;;;;;4971785;28;20527;-68
2022/10/15 01:26:28;;;;;;;0.30;0.30;;;;;;;;;;4968604;28;20438;-68
2022/10/15 01:29:12;;;;;;;0.40;0.40;;;;;;;;;;4971503;28;20429;-68
2022/10/15 01:31:58;;;;;;;0.40;0.40;;;;;;;;;;4972244;28;20470;-68
2022/10/15 01:34:30;;;;;;;1.90;0.50;;;;;;;;;;4971859;28;20505;-68
2022/10/15 01:37:02;;;;;;;1.90;0.40;;;;;;;;;;4971983;28;20481;-68
2022/10/15 01:39:31;;;;;;;0.40;0.40;;;;;;;;;;4971404;28;20446;-68
2022/10/15 01:42:01;;;;;;;0.50;0.50;;;;;;;;;;4972282;28;20512;-70
2022/10/15 01:44:31;;;;;;;0.40;0.40;;;;;;;;;;4971609;28;20441;-68
2022/10/15 01:46:59;;;;;;;0.97;0.40;;;;;;;;;;4971710;28;20448;-69
2022/10/15 01:49:28;;;;;;;1.90;0.53;;;;;;;;;;4970979;28;20449;-70
2022/10/15 01:51:55;;;;;;;0.50;0.50;;;;;;;;;;4970888;28;20919;-68
2022/10/15 01:54:23;;;;;;;1.80;0.40;;;;;;;;;;4970610;28;20943;-68
2022/10/15 01:56:49;;;;;;;0.40;0.40;;;;;;;;;;4971257;28;20482;-68
2022/10/15 01:59:17;;;;;;;1.50;0.47;;;;;;;;;;4970908;28;20489;-68
2022/10/15 02:01:43;;;;;;;2.00;0.30;;;;;;;;;;4971716;28;20430;-67
2022/10/15 02:04:23;;;;;;;0.90;0.40;;;;;;;;;;4970735;28;21043;-69
2022/10/15 02:06:51;;;;;;;0.50;0.30;;;;;;;;;;4971323;28;20437;-68
2022/10/15 02:09:20;;;;;;;0.33;0.33;;;;;;;;;;4971243;28;20484;-68
2022/10/15 02:12:00;;;;;;;0.30;0.30;;;;;;;;;;4971713;28;20487;-68
2022/10/15 02:14:28;;;;;;;0.30;0.30;;;;;;;;;;4970468;28;20426;-70
2022/10/15 02:17:01;;;;;;;0.30;0.30;;;;;;;;;;4971134;28;20539;-68
2022/10/15 02:19:30;;;;;;;0.30;0.30;;;;;;;;;;4971375;28;20970;-68
2022/10/15 02:21:56;;;;;;;1.17;0.50;;;;;;;;;;4971582;28;20429;-68
2022/10/15 02:24:26;;;;;;;0.30;0.30;;;;;;;;;;4971437;28;20448;-68
2022/10/15 02:26:55;;;;;;;4.60;0.33;;;;;;;;;;4970268;28;20473;-68
2022/10/15 02:29:23;;;;;;;0.50;0.50;;;;;;;;;;4970282;28;20529;-68
2022/10/15 02:31:49;;;;;;;0.30;0.30;;;;;;;;;;4971300;28;20457;-68
2022/10/15 02:34:17;;;;;;;0.40;0.40;;;;;;;;;;4970173;28;20540;-68
2022/10/15 02:36:44;;;;;;;0.40;0.40;;;;;;;;;;4971025;28;20217;-67
2022/10/15 02:39:11;;;;;;;1.33;0.37;;;;;;;;;;4970957;28;20426;-69
2022/10/15 02:41:38;;;;;;;0.30;0.30;;;;;;;;;;4970858;28;20453;-68
2022/10/15 02:44:04;;;;;;;0.30;0.30;;;;;;;;;;4970693;28;20794;-68
2022/10/15 02:46:30;;;;;;;0.40;0.40;;;;;;;;;;4970873;28;20523;-68
2022/10/15 02:48:56;;;;;;;0.30;0.30;;;;;;;;;;4971106;28;20457;-68
2022/10/15 02:51:22;;;;;;;0.40;0.40;;;;;;;;;;4970433;28;20437;-68
2022/10/15 02:53:48;;;;;;;0.40;0.40;;;;;;;;;;4971211;28;20751;-68
2022/10/15 02:56:14;;;;;;;0.60;0.60;;;;;;;;;;4969924;28;20830;-69
2022/10/15 02:58:41;;;;;;;1.07;0.50;;;;;;;;;;4970876;28;20820;-68
2022/10/15 03:01:07;;;;;;;6.57;0.50;;;;;;;;;;4970744;28;20418;-68
2022/10/15 03:03:33;;;;;;;0.50;0.50;;;;;;;;;;4970895;28;20444;-68
2022/10/15 03:05:59;;;;;;;0.87;0.77;;;;;;;;;;4969461;28;20437;-68
2022/10/15 03:08:25;;;;;;;4.23;0.87;;;;;;;;;;4971231;28;20437;-68
2022/10/15 03:10:51;;;;;;;0.60;0.60;;;;;;;;;;4970625;28;20476;-68
2022/10/15 03:13:17;;;;;;;1.23;1.23;;;;;;;;;;4970390;28;20426;-68
2022/10/15 03:15:43;;;;;;;5.63;0.67;;;;;;;;;;4969436;28;20991;-67
2022/10/15 03:18:09;;;;;;;2.30;0.80;;;;;;;;;;4970833;28;20468;-68
2022/10/15 03:20:35;;;;;;;0.50;0.50;;;;;;;;;;4970303;28;20453;-68
2022/10/15 03:23:01;;;;;;;0.53;0.53;;;;;;;;;;4970918;28;20937;-68
2022/10/15 03:25:27;;;;;;;0.53;0.53;;;;;;;;;;4969578;28;20795;-68
2022/10/15 03:27:53;;;;;;;0.47;0.47;;;;;;;;;;4970553;28;20437;-68
2022/10/15 03:30:19;;;;;;;1.07;1.07;;;;;;;;;;4970520;28;20798;-68
2022/10/15 03:32:45;;;;;;;1.70;0.80;;;;;;;;;;4970665;28;20786;-68
2022/10/15 03:35:11;;;;;;;1.33;0.60;;;;;;;;;;4970325;28;20456;-67
2022/10/15 03:37:37;;;;;;;0.40;0.40;;;;;;;;;;4970361;28;20989;-67
2022/10/15 03:40:03;;;;;;;0.80;0.50;;;;;;;;;;4969473;28;20430;-68
2022/10/15 03:42:29;;;;;;;1.17;0.47;;;;;;;;;;4972986;28;20444;-67
2022/10/15 03:44:55;;;;;;;0.47;0.47;;;;;;;;;;4972725;28;20464;-67
2022/10/15 03:47:21;;;;;;;1.43;0.40;;;;;;;;;;4973283;28;20775;-67
2022/10/15 03:49:47;;;;;;;0.30;0.30;;;;;;;;;;4974354;28;20426;-68
2022/10/15 03:52:13;;;;;;;9.03;0.70;;;;;;;;;;4974227;28;20513;-68
2022/10/15 03:54:39;;;;;;;1.40;0.50;;;;;;;;;;4972920;28;20433;-68
2022/10/15 03:57:05;;;;;;;0.83;0.70;;;;;;;;;;4972968;28;20488;-67
2022/10/15 03:59:31;;;;;;;0.47;0.47;;;;;;;;;;4972619;28;20473;-68
2022/10/15 04:01:57;;;;;;;0.30;0.30;;;;;;;;;;4973772;28;20442;-68
2022/10/15 04:04:23;;;;;;;0.30;0.30;;;;;;;;;;4973949;28;20990;-68
2022/10/15 04:06:49;;;;;;;0.50;0.40;;;;;;;;;;4973644;28;20465;-68
2022/10/15 04:09:15;;;;;;;0.33;0.33;;;;;;;;;;4973050;28;20465;-67
2022/10/15 04:11:41;;;;;;;0.40;0.40;;;;;;;;;;4973793;28;20934;-68
2022/10/15 04:14:07;;;;;;;1.30;0.60;;;;;;;;;;4973379;28;20517;-67
2022/10/15 04:16:33;;;;;;;0.60;0.50;;;;;;;;;;4972362;28;20569;-67
2022/10/15 04:18:59;;;;;;;0.80;0.80;;;;;;;;;;4972088;28;20450;-68
2022/10/15 04:21:25;;;;;;;0.50;0.50;;;;;;;;;;4973477;28;20448;-67
2022/10/15 04:23:51;;;;;;;0.30;0.30;;;;;;;;;;4972972;28;20515;-68
2022/10/15 04:26:17;;;;;;;0.67;0.60;;;;;;;;;;4972869;28;20441;-67
2022/10/15 04:28:43;;;;;;;0.40;0.40;;;;;;;;;;4973285;28;20454;-68
2022/10/15 04:31:09;;;;;;;0.90;0.50;;;;;;;;;;4973676;28;20445;-67
2022/10/15 04:33:35;;;;;;;0.30;0.30;;;;;;;;;;4971435;28;20926;-67
2022/10/15 04:36:02;;;;;;;0.30;0.30;;;;;;;;;;4972715;28;20473;-67
2022/10/15 04:38:29;;;;;;;0.93;0.60;;;;;;;;;;4972848;28;20441;-67
2022/10/15 04:40:59;;;;;;;1.57;0.50;;;;;;;;;;4973366;28;20418;-67
2022/10/15 04:43:25;;;;;;;1.90;0.50;;;;;;;;;;4972901;28;20461;-67
2022/10/15 04:45:51;;;;;;;0.40;0.40;;;;;;;;;;4972517;28;20508;-68
2022/10/15 04:48:17;;;;;;;0.30;0.30;;;;;;;;;;4972025;28;20442;-68
2022/10/15 04:50:43;;;;;;;0.40;0.40;;;;;;;;;;4972790;28;20537;-67
2022/10/15 04:53:09;;;;;;;0.47;0.47;;;;;;;;;;4972592;28;20418;-68
2022/10/15 04:55:35;;;;;;;1.90;0.30;;;;;;;;;;4972387;28;20558;-68
2022/10/15 04:58:01;;;;;;;0.63;0.63;;;;;;;;;;4972102;28;20485;-67
2022/10/15 05:00:27;;;;;;;0.50;0.33;;;;;;;;;;4973029;28;21001;-67
2022/10/15 05:02:53;;;;;;;0.33;0.33;;;;;;;;;;4972857;28;20808;-68
2022/10/15 05:05:19;;;;;;;1.43;0.40;;;;;;;;;;4971911;28;20430;-68
2022/10/15 05:07:45;;;;;;;0.70;0.60;;;;;;;;;;4972131;28;20525;-68
2022/10/15 05:10:11;;;;;;;0.30;0.30;;;;;;;;;;4971540;28;20473;-68
2022/10/15 05:12:37;;;;;;;0.40;0.40;;;;;;;;;;4972344;28;20481;-68
2022/10/15 05:15:03;;;;;;;0.50;0.50;;;;;;;;;;4971933;28;20428;-68
2022/10/15 05:17:29;;;;;;;0.30;0.30;;;;;;;;;;4971485;28;20999;-68
2022/10/15 05:19:55;;;;;;;0.40;0.40;;;;;;;;;;4972368;28;21031;-68
2022/10/15 05:22:21;;;;;;;0.30;0.30;;;;;;;;;;4972014;28;20536;-67
2022/10/15 05:24:48;;;;;;;1.43;0.40;;;;;;;;;;4972372;28;20981;-69
2022/10/15 05:27:14;;;;;;;2.83;0.40;;;;;;;;;;4971993;28;20504;-68
2022/10/15 05:29:40;;;;;;;1.70;0.30;;;;;;;;;;4971624;28;20445;-68
2022/10/15 05:32:06;;;;;;;0.60;0.60;;;;;;;;;;4972525;28;20517;-68
2022/10/15 05:34:32;;;;;;;4.90;1.07;;;;;;;;;;4972002;28;20437;-68
2022/10/15 05:36:58;;;;;;;3.27;0.90;;;;;;;;;;4971166;28;20584;-68
2022/10/15 05:39:24;;;;;;;1.43;0.50;;;;;;;;;;4972097;28;20878;-68
2022/10/15 05:41:52;;;;;;;0.77;0.40;;;;;;;;;;4971104;28;20875;-68
2022/10/15 05:44:18;;;;;;;0.40;0.40;;;;;;;;;;4970735;28;20426;-69
2022/10/15 05:46:44;;;;;;;0.50;0.50;;;;;;;;;;4971669;28;20502;-68
2022/10/15 05:49:10;;;;;;;0.57;0.57;;;;;;;;;;4972064;28;20430;-68
2022/10/15 05:51:37;;;;;;;0.40;0.40;;;;;;;;;;4971880;28;20529;-68
2022/10/15 05:54:03;;;;;;;0.50;0.50;;;;;;;;;;4971650;28;20422;-68
2022/10/15 05:56:29;;;;;;;1.70;0.50;;;;;;;;;;4969780;28;20473;-68
2022/10/15 05:58:55;;;;;;;2.00;0.40;;;;;;;;;;4970312;28;20492;-68
2022/10/15 06:01:21;;;;;;;0.40;0.40;;;;;;;;;;4969761;28;20458;-69
2022/10/15 06:03:47;;;;;;;0.50;0.50;;;;;;;;;;4970194;28;20438;-68
2022/10/15 06:06:14;;;;;;;17.80;0.50;;;;;;;;;;4970812;28;20536;-68
2022/10/15 06:08:39;;;;;;;5.10;0.37;;;;;;;;;;4971530;28;21025;-67
2022/10/15 06:11:06;;;;;;;0.50;0.50;;;;;;;;;;4965790;28;20481;-68
2022/10/15 06:13:31;;;;;;;2.57;0.40;;;;;;;;;;4968361;28;20448;-68
2022/10/15 06:15:57;;;;;;;0.40;0.40;;;;;;;;;;4969069;28;20434;-67
2022/10/15 06:18:24;;;;;;;1.30;0.77;;;;;;;;;;4970337;28;20452;-69
2022/10/15 06:20:51;;;;;;;2.63;0.60;;;;;;;;;;4970708;28;20422;-68
2022/10/15 06:23:18;;;;;;;4.87;0.60;;;;;;;;;;4970727;28;20443;-68
2022/10/15 06:25:43;;;;;;;2.67;0.70;;;;;;;;;;4970228;28;20569;-68
2022/10/15 06:28:10;;;;;;;1.40;0.70;;;;;;;;;;4969000;28;20556;-67
2022/10/15 06:30:38;;;;;;;1.70;0.77;;;;;;;;;;4971209;28;20486;-68
2022/10/15 06:33:04;;;;;;;1.63;0.50;;;;;;;;;;4969601;28;20438;-67
2022/10/15 06:35:32;;;;;;;1.03;0.50;;;;;;;;;;4969376;28;20434;-67
2022/10/15 06:38:02;;;;;;;2.50;0.40;;;;;;;;;;4969885;28;20485;-69
2022/10/15 06:40:28;;;;;;;0.50;0.50;;;;;;;;;;4969433;28;20438;-68
2022/10/15 06:42:54;;;;;;;8.23;0.97;;;;;;;;;;4969769;28;20458;-70
2022/10/15 06:45:20;;;;;;;0.60;0.60;;;;;;;;;;4968455;28;20430;-69
2022/10/15 06:47:46;;;;;;;1.00;0.40;;;;;;;;;;4970434;28;20444;-68
2022/10/15 06:50:12;;;;;;;2.93;0.40;;;;;;;;;;4970048;28;21099;-69
2022/10/15 06:52:38;;;;;;;2.43;0.50;;;;;;;;;;4970161;28;20438;-68
2022/10/15 06:55:04;;;;;;;0.50;0.50;;;;;;;;;;4968571;28;20469;-68
2022/10/15 06:57:30;;;;;;;0.50;0.50;;;;;;;;;;4968936;28;20496;-69
2022/10/15 06:59:56;;;;;;;0.47;0.47;;;;;;;;;;4969237;28;20812;-67
2022/10/15 07:02:23;;;;;;;1.43;0.40;;;;;;;;;;4967938;28;20473;-68
2022/10/15 07:04:52;;;;;;;5.23;2.67;;;;;;;;;;4969693;28;20429;-68
2022/10/15 07:07:18;;;;;;;1.07;0.80;;;;;;;;;;4969826;28;21014;-69
2022/10/15 07:09:45;;;;;;;0.40;0.40;;;;;;;;;;4967931;28;20564;-68
2022/10/15 07:12:15;;;;;;;1.27;0.50;;;;;;;;;;4968320;28;20438;-68
2022/10/15 07:14:41;;;;;;;8.90;0.60;;;;;;;;;;4969933;28;20906;-68
2022/10/15 07:17:07;;;;;;;0.53;0.53;;;;;;;;;;4972947;28;20920;-69
2022/10/15 07:19:33;;;;;;;0.40;0.40;;;;;;;;;;4974409;28;20994;-68
2022/10/15 07:21:59;;;;;;;0.87;0.87;;;;;;;;;;4973978;28;20453;-69
2022/10/15 07:24:25;;;;;;;0.83;0.70;;;;;;;;;;4972894;28;20438;-68
2022/10/15 07:26:51;;;;;;;4.57;0.60;;;;;;;;;;4971614;28;20426;-67
2022/10/15 07:29:17;;;;;;;0.50;0.50;;;;;;;;;;4972893;28;20441;-66
2022/10/15 07:31:43;;;;;;;0.53;0.50;;;;;;;;;;4972887;28;20449;-67
2022/10/15 07:34:09;;;;;;;0.80;0.50;;;;;;;;;;4973363;28;20438;-67
2022/10/15 07:36:35;;;;;;;0.60;0.50;;;;;;;;;;4973695;28;20464;-61
2022/10/15 07:39:01;;;;;;;0.90;0.50;;;;;;;;;;4973098;28;20799;-61
2022/10/15 07:41:27;;;;;;;0.60;0.60;;;;;;;;;;4974000;28;20422;-61
2022/10/15 07:43:53;;;;;;;0.60;0.50;;;;;;;;;;4973016;28;20840;-62
2022/10/15 07:46:19;;;;;;;1.27;0.40;;;;;;;;;;4973923;28;20414;-61
2022/10/15 07:48:45;;;;;;;0.50;0.50;;;;;;;;;;4974139;28;20480;-62
2022/10/15 07:51:11;;;;;;;1.90;0.57;;;;;;;;;;4974066;28;20943;-61
2022/10/15 07:53:37;;;;;;;0.40;0.40;;;;;;;;;;4971933;28;20440;-69
2022/10/15 07:56:06;;;;;;;2.30;0.73;;;;;;;;;;4973473;28;20790;-69
2022/10/15 07:58:33;;;;;;;3.40;0.63;;;;;;;;;;4972684;28;20457;-68
2022/10/15 08:01:00;;;;;;;1.07;1.07;;;;;;;;;;4972823;28;20965;-68
2022/10/15 08:03:26;;;;;;;0.77;0.77;;;;;;;;;;4973496;28;20540;-67
2022/10/15 08:05:54;;;;;;;2.67;0.40;;;;;;;;;;4972193;28;20573;-68
2022/10/15 08:08:20;;;;;;;0.60;0.60;;;;;;;;;;4974113;28;20432;-68
2022/10/15 08:10:47;;;;;;;0.60;0.60;;;;;;;;;;4972062;28;20474;-68
2022/10/15 08:13:13;;;;;;;1.53;0.50;;;;;;;;;;4973563;28;20418;-67
2022/10/15 08:15:39;;;;;;;0.80;0.80;;;;;;;;;;4972180;28;21017;-70
2022/10/15 08:18:06;;;;;;;0.70;0.70;;;;;;;;;;4973552;28;20561;-66
2022/10/15 08:20:32;;;;;;;8.80;0.83;;;;;;;;;;4973249;28;20445;-68
2022/10/15 08:22:58;;;;;;;0.70;0.70;;;;;;;;;;4973642;28;20425;-68
2022/10/15 08:25:24;;;;;;;1.63;0.70;;;;;;;;;;4970407;28;20442;-68
2022/10/15 08:27:50;;;;;;;2.77;0.93;;;;;;;;;;4969802;28;20469;-68
2022/10/15 08:30:16;;;;;;;11.13;1.30;;;;;;;;;;4972412;28;20449;-69
2022/10/15 08:32:42;;;;;;;1.30;0.50;;;;;;;;;;4968393;28;20496;-68
2022/10/15 08:35:08;;;;;;;7.10;0.90;;;;;;;;;;4970520;28;20927;-68
2022/10/15 08:37:34;;;;;;;1.37;0.47;;;;;;;;;;4972433;28;20493;-68
2022/10/15 08:40:00;;;;;;;4.37;0.60;;;;;;;;;;4972748;28;20500;-67
2022/10/15 08:42:33;;;;;;;1.40;0.70;;;;;;;;;;4971500;28;20465;-68
2022/10/15 08:45:01;;;;;;;3.30;0.60;;;;;;;;;;4971595;28;20437;-69
2022/10/15 08:47:42;;;;;;;2.57;0.60;;;;;;;;;;4969379;28;20465;-68
2022/10/15 08:50:23;;;;;;;0.60;0.60;;;;;;;;;;4972284;28;20449;-68
2022/10/15 08:52:49;;;;;;;0.70;0.70;;;;;;;;;;4972275;28;20453;-69
2022/10/15 08:55:18;;;;;;;0.87;0.50;;;;;;;;;;4970876;28;20441;-68
2022/10/15 08:57:48;;;;;;;0.50;0.50;;;;;;;;;;4969626;28;20485;-69
2022/10/15 09:00:22;;;;;;;0.53;0.53;;;;;;;;;;4971100;28;20444;-70
2022/10/15 09:02:48;;;;;;;0.50;0.50;;;;;;;;;;4970440;28;20446;-68
2022/10/15 09:05:34;;;;;;;0.50;0.50;;;;;;;;;;4970216;28;20480;-68
2022/10/15 09:08:00;;;;;;;0.80;0.53;;;;;;;;;;4940866;28;20430;-68
2022/10/15 09:10:44;;;;;;;1.80;0.47;;;;;;;;;;4971267;28;20485;-68
2022/10/15 09:13:14;;;;;;;0.83;0.60;;;;;;;;;;4971758;28;20953;-69
2022/10/15 09:15:46;;;;;;;0.90;0.40;;;;;;;;;;4969328;28;20441;-68
2022/10/15 09:18:16;;;;;;;1.90;0.67;;;;;;;;;;4970671;28;20492;-68
2022/10/15 09:20:43;;;;;;;0.57;0.57;;;;;;;;;;4970493;28;20430;-70
2022/10/15 09:23:14;;;;;;;0.50;0.40;;;;;;;;;;4970669;28;20513;-70
2022/10/15 09:25:41;;;;;;;0.40;0.40;;;;;;;;;;4970966;28;20430;-69
2022/10/15 09:28:10;;;;;;;4.73;0.60;;;;;;;;;;4970982;28;20970;-68
2022/10/15 09:30:46;;;;;;;1.30;0.80;;;;;;;;;;4970677;28;20540;-67
2022/10/15 09:33:31;;;;;;;0.50;0.50;;;;;;;;;;4971784;28;20417;-68
2022/10/15 09:36:20;;;;;;;0.40;0.40;;;;;;;;;;4969027;28;20500;-68
2022/10/15 09:39:05;;;;;;;0.50;0.50;;;;;;;;;;4941129;28;20534;-68
2022/10/15 09:41:36;;;;;;;6.53;0.50;;;;;;;;;;4969069;28;21275;-70
2022/10/15 09:44:02;;;;;;;6.80;0.50;;;;;;;;;;4967222;28;20418;-69
2022/10/15 09:46:28;;;;;;;3.43;3.13;;;;;;;;;;4970120;28;20429;-68
2022/10/15 09:49:17;;;;;;;3.83;0.90;;;;;;;;;;4970954;28;20426;-68
2022/10/15 09:51:48;;;;;;;0.50;0.50;;;;;;;;;;4971010;28;20525;-68
2022/10/15 09:54:22;;;;;;;0.60;0.60;;;;;;;;;;4970994;28;20433;-69
2022/10/15 09:56:51;;;;;;;2.03;0.60;;;;;;;;;;4970305;28;20672;-70
2022/10/15 09:59:18;;;;;;;0.40;0.40;;;;;;;;;;4969967;28;20437;-68
2022/10/15 10:01:58;;;;;;;0.70;0.50;;;;;;;;;;4970827;28;20445;-70
2022/10/15 10:04:26;;;;;;;0.67;0.67;;;;;;;;;;4969821;28;20441;-67
2022/10/15 10:06:53;;;;;;;0.63;0.63;;;;;;;;;;4970035;28;22088;-68
2022/10/15 10:09:21;;;;;;;0.63;0.60;;;;;;;;;;4968566;28;20560;-68
2022/10/15 10:11:48;;;;;;;0.70;0.70;;;;;;;;;;4969875;28;20438;-69
2022/10/15 10:14:21;;;;;;;3.60;1.47;;;;;;;;;;4968151;28;20438;-68
2022/10/15 10:17:04;;;;;;;0.67;0.40;;;;;;;;;;4965264;28;20492;-70
2022/10/15 10:19:30;;;;;;;0.60;0.57;;;;;;;;;;4969490;28;20528;-69
2022/10/15 10:22:06;;;;;;;1.33;0.47;;;;;;;;;;4971525;28;21017;-68
2022/10/15 10:24:33;;;;;;;5.43;0.67;;;;;;;;;;4969939;28;20934;-69
2022/10/15 10:26:59;;;;;;;0.50;0.50;;;;;;;;;;4969919;28;20936;-68
2022/10/15 10:29:29;;;;;;;3.17;0.50;;;;;;;;;;4970918;28;20569;-69
2022/10/15 10:31:55;;;;;;;4.37;0.43;;;;;;;;;;4970424;28;20425;-70
2022/10/15 10:34:29;;;;;;;1.07;0.80;;;;;;;;;;4970678;28;20438;-69
2022/10/15 10:36:55;;;;;;;0.87;0.87;;;;;;;;;;4970499;28;20476;-68
2022/10/15 10:39:26;;;;;;;0.73;0.73;;;;;;;;;;4966690;28;20438;-68
2022/10/15 10:42:03;;;;;;;0.70;0.70;;;;;;;;;;4969953;28;20516;-69
2022/10/15 10:44:33;;;;;;;0.77;0.70;;;;;;;;;;4967683;28;20445;-69
2022/10/15 10:47:02;;;;;;;1.10;0.70;;;;;;;;;;4967412;28;21020;-69
2022/10/15 10:49:32;;;;;;;0.67;0.67;;;;;;;;;;4968622;28;20875;-68
2022/10/15 10:51:59;;;;;;;5.00;0.87;;;;;;;;;;4969618;28;20442;-68
2022/10/15 10:54:26;;;;;;;1.53;0.70;;;;;;;;;;4969881;28;20783;-68
2022/10/15 10:56:52;;;;;;;3.60;0.80;;;;;;;;;;4969496;28;20572;-71
2022/10/15 10:59:21;;;;;;;1.90;0.60;;;;;;;;;;4969442;28;20446;-69
2022/10/15 11:01:47;;;;;;;0.70;0.60;;;;;;;;;;4969262;28;20442;-68
2022/10/15 11:04:17;;;;;;;1.17;0.70;;;;;;;;;;4970289;28;20437;-70
2022/10/15 11:07:12;;;;;;;1.30;1.20;;;;;;;;;;4962244;28;20430;-68
2022/10/15 11:09:57;;;;;;;0.70;0.70;;;;;;;;;;4956614;28;20473;-70
2022/10/15 11:12:26;;;;;;;1.00;0.80;;;;;;;;;;4970088;28;20449;-71
2022/10/15 11:14:52;;;;;;;2.63;0.70;;;;;;;;;;4969029;28;20427;-70
2022/10/15 11:17:37;;;;;;;0.80;0.80;;;;;;;;;;4968590;28;20575;-68
2022/10/15 11:20:12;;;;;;;1.63;1.17;;;;;;;;;;4968033;28;20446;-69
2022/10/15 11:22:47;;;;;;;9.50;1.00;;;;;;;;;;4969868;28;20498;-69
2022/10/15 11:25:16;;;;;;;0.97;0.87;;;;;;;;;;4970196;28;20433;-70
2022/10/15 11:28:01;;;;;;;0.53;0.53;;;;;;;;;;4970271;28;20417;-69
2022/10/15 11:30:32;;;;;;;0.53;0.53;;;;;;;;;;4970547;28;20426;-70
2022/10/15 11:33:13;;;;;;;1.20;1.10;;;;;;;;;;4970570;28;20426;-70
2022/10/15 11:35:48;;;;;;;0.60;0.60;;;;;;;;;;4969803;28;20436;-68
2022/10/15 11:38:19;;;;;;;1.40;0.93;;;;;;;;;;4970312;28;20564;-70
2022/10/15 11:41:03;;;;;;;3.13;1.13;;;;;;;;;;4969753;28;20570;-68
2022/10/15 11:43:35;;;;;;;5.60;0.70;;;;;;;;;;4968745;28;20445;-68
2022/10/15 11:46:11;;;;;;;10.33;1.47;;;;;;;;;;4969328;28;20862;-69
2022/10/15 11:48:45;;;;;;;0.63;0.63;;;;;;;;;;4969532;28;20946;-69
2022/10/15 11:51:32;;;;;;;12.03;1.13;;;;;;;;;;4969963;28;20437;-69
2022/10/15 11:54:08;;;;;;;0.50;0.50;;;;;;;;;;4969185;28;20461;-69
2022/10/15 11:56:36;;;;;;;0.70;0.60;;;;;;;;;;4968525;28;20583;-68
2022/10/15 11:59:17;;;;;;;0.50;0.50;;;;;;;;;;4969431;28;20429;-69
2022/10/15 12:01:47;;;;;;;2.20;1.30;;;;;;;;;;4970380;28;20549;-69
2022/10/15 12:04:39;;;;;;;0.60;0.60;;;;;;;;;;4972627;28;20433;-70
2022/10/15 12:07:07;;;;;;;1.10;0.70;;;;;;;;;;4970283;28;20584;-69
2022/10/15 12:09:40;;;;;;;0.50;0.50;;;;;;;;;;4971467;28;20469;-70
2022/10/15 12:12:24;;;;;;;5.93;0.80;;;;;;;;;;4972905;28;20430;-68
2022/10/15 12:14:50;;;;;;;1.93;1.03;;;;;;;;;;4972179;28;20523;-69
2022/10/15 12:17:20;;;;;;;0.80;0.80;;;;;;;;;;4972328;28;20993;-69
2022/10/15 12:19:58;;;;;;;1.13;1.07;;;;;;;;;;4973042;28;20414;-70
2022/10/15 12:22:36;;;;;;;7.93;1.20;;;;;;;;;;4973060;28;20421;-67
2022/10/15 12:25:02;;;;;;;0.43;0.43;;;;;;;;;;4973065;28;20773;-69
2022/10/15 12:27:33;;;;;;;3.03;0.70;;;;;;;;;;4972229;28;20477;-68
2022/10/15 12:29:59;;;;;;;0.60;0.60;;;;;;;;;;4972844;28;20414;-68
2022/10/15 12:32:28;;;;;;;0.57;0.50;;;;;;;;;;4971779;28;20437;-69
2022/10/15 12:34:58;;;;;;;0.50;0.50;;;;;;;;;;4971670;28;20437;-70
2022/10/15 12:37:26;;;;;;;0.60;0.60;;;;;;;;;;4972320;28;20832;-70
2022/10/15 12:39:57;;;;;;;0.53;0.53;;;;;;;;;;4967959;28;20431;-68
2022/10/15 12:42:23;;;;;;;0.50;0.50;;;;;;;;;;4970417;28;20450;-70
2022/10/15 12:44:50;;;;;;;0.60;0.60;;;;;;;;;;4972907;28;20437;-69
2022/10/15 12:47:36;;;;;;;1.33;1.00;;;;;;;;;;4972264;28;20437;-69
2022/10/15 12:50:04;;;;;;;1.37;1.00;;;;;;;;;;4970460;28;20428;-69
2022/10/15 12:52:48;;;;;;;4.80;0.50;;;;;;;;;;4972614;28;20475;-70
2022/10/15 12:55:22;;;;;;;2.10;0.50;;;;;;;;;;4971301;28;20960;-69
2022/10/15 12:57:52;;;;;;;4.20;0.60;;;;;;;;;;4972541;28;20481;-69
2022/10/15 13:00:30;;;;;;;0.70;0.70;;;;;;;;;;4972178;28;20422;-70
2022/10/15 13:03:03;;;;;;;1.50;0.57;;;;;;;;;;4972416;28;20430;-69
2022/10/15 13:05:30;;;;;;;0.77;0.77;;;;;;;;;;4972078;28;20422;-68
2022/10/15 13:07:57;;;;;;;0.50;0.50;;;;;;;;;;4970883;28;20467;-69
2022/10/15 13:10:32;;;;;;;2.77;0.80;;;;;;;;;;4972132;28;20521;-70
2022/10/15 13:13:01;;;;;;;1.90;0.60;;;;;;;;;;4971069;28;20516;-68
2022/10/15 13:15:28;;;;;;;2.57;0.67;;;;;;;;;;4971112;28;20422;-70
2022/10/15 13:17:55;;;;;;;1.53;1.43;;;;;;;;;;4972001;28;20487;-69
2022/10/15 13:20:30;;;;;;;7.10;3.37;;;;;;;;;;4971716;28;20446;-70
2022/10/15 13:23:10;;;;;;;1.50;0.70;;;;;;;;;;4972700;28;20436;-70
2022/10/15 13:25:36;;;;;;;1.00;0.90;;;;;;;;;;4972019;28;20567;-70
2022/10/15 13:28:02;;;;;;;0.87;0.87;;;;;;;;;;4972323;28;20900;-69
2022/10/15 13:30:28;;;;;;;0.83;0.83;;;;;;;;;;4971914;28;20440;-70
2022/10/15 13:32:55;;;;;;;2.90;0.60;;;;;;;;;;4968938;28;20434;-69
2022/10/15 13:35:23;;;;;;;6.03;0.50;;;;;;;;;;4971231;28;20442;-69
2022/10/15 13:37:49;;;;;;;1.33;0.90;;;;;;;;;;4971710;28;20489;-70
2022/10/15 13:40:20;;;;;;;1.23;0.83;;;;;;;;;;4972160;28;20483;-68
2022/10/15 13:43:05;;;;;;;1.07;0.70;;;;;;;;;;4971565;28;20994;-70
2022/10/15 13:45:31;;;;;;;0.93;0.90;;;;;;;;;;4970463;28;20449;-69
2022/10/15 13:47:58;;;;;;;0.73;0.60;;;;;;;;;;4971860;28;20418;-70
2022/10/15 13:50:24;;;;;;;1.13;0.70;;;;;;;;;;4969874;28;20863;-68
2022/10/15 13:52:53;;;;;;;2.30;1.03;;;;;;;;;;4971859;28;20514;-68
2022/10/15 13:55:21;;;;;;;1.20;1.20;;;;;;;;;;4967923;28;20729;-69
2022/10/15 13:57:48;;;;;;;0.77;0.77;;;;;;;;;;4970840;28;20481;-69
2022/10/15 14:00:25;;;;;;;0.70;0.70;;;;;;;;;;4968745;28;20797;-69
2022/10/15 14:03:10;;;;;;;0.53;0.53;;;;;;;;;;4971017;28;20418;-69
2022/10/15 14:05:35;;;;;;;4.93;0.97;;;;;;;;;;4969108;28;20429;-68
2022/10/15 14:08:01;;;;;;;0.83;0.60;;;;;;;;;;4971514;28;20520;-68
2022/10/15 14:10:27;;;;;;;0.77;0.60;;;;;;;;;;4969325;28;20485;-69
2022/10/15 14:12:53;;;;;;;2.63;1.40;;;;;;;;;;4968914;28;20868;-69
2022/10/15 14:15:38;;;;;;;3.30;3.07;;;;;;;;;;4970223;28;20468;-67
2022/10/15 14:18:04;;;;;;;1.60;1.50;;;;;;;;;;4971458;28;20474;-69
2022/10/15 14:20:30;;;;;;;5.33;1.57;;;;;;;;;;4970348;28;20438;-68
2022/10/15 14:22:56;;;;;;;0.60;0.60;;;;;;;;;;4970980;28;20422;-68
2022/10/15 14:25:23;;;;;;;2.00;1.90;;;;;;;;;;4969058;28;20430;-68
2022/10/15 14:27:50;;;;;;;1.10;1.10;;;;;;;;;;4970515;28;21036;-70
2022/10/15 14:30:30;;;;;;;1.03;1.03;;;;;;;;;;4970331;28;20445;-70
2022/10/15 14:32:56;;;;;;;2.53;2.37;;;;;;;;;;4969581;28;20811;-70
2022/10/15 14:35:23;;;;;;;4.10;1.40;;;;;;;;;;4964039;28;20434;-71
2022/10/15 14:37:58;;;;;;;1.77;1.67;;;;;;;;;;4967953;28;21006;-69
2022/10/15 14:40:25;;;;;;;2.67;1.43;;;;;;;;;;4967203;28;20525;-70
2022/10/15 14:42:54;;;;;;;1.40;1.40;;;;;;;;;;4968408;28;20442;-69
2022/10/15 14:45:27;;;;;;;1.10;1.10;;;;;;;;;;4969177;28;20444;-68
2022/10/15 14:47:57;;;;;;;1.50;1.50;;;;;;;;;;4969609;28;20430;-68
2022/10/15 14:50:25;;;;;;;2.10;2.10;;;;;;;;;;4968293;28;20434;-69
2022/10/15 14:52:52;;;;;;;0.80;0.80;;;;;;;;;;4969037;28;20975;-68
2022/10/15 14:55:28;;;;;;;2.67;0.90;;;;;;;;;;4967113;28;21118;-70